createdAt,value
2023-01-18T00:00:39.234Z,32.60
2023-01-18T00:03:08.734Z,32.78
2023-01-18T00:05:40.860Z,32.78
2023-01-18T00:08:12.773Z,31.02
2023-01-18T00:10:39.989Z,29.92
2023-01-18T00:13:07.041Z,33.08
2023-01-18T00:15:34.728Z,33.97
2023-01-18T00:18:01.551Z,28.10
2023-01-18T00:20:29.631Z,33.75
2023-01-18T00:22:58.932Z,33.78
2023-01-18T00:25:25.822Z,30.55
2023-01-18T00:27:54.154Z,29.58
2023-01-18T00:30:23.412Z,31.15
2023-01-18T00:32:55.039Z,31.60
2023-01-18T00:35:22.134Z,34.35
2023-01-18T00:37:50.147Z,33.53
2023-01-18T00:40:16.750Z,31.58
2023-01-18T00:43:01.777Z,32.17
2023-01-18T00:45:28.231Z,34.72
2023-01-18T00:47:54.960Z,30.70
2023-01-18T00:50:22.370Z,27.25
2023-01-18T00:52:49.933Z,28.25
2023-01-18T00:55:16.987Z,31.10
2023-01-18T00:57:43.675Z,27.83
2023-01-18T01:00:15.260Z,31.77
2023-01-18T01:02:42.145Z,30.67
2023-01-18T01:05:38.701Z,28.83
2023-01-18T01:08:06.213Z,30.95
2023-01-18T01:10:35.893Z,25.83
2023-01-18T01:13:21.273Z,30.45
2023-01-18T01:16:06.214Z,28.65
2023-01-18T01:18:51.143Z,29.85
2023-01-18T01:21:35.919Z,31.38
2023-01-18T01:24:20.810Z,31.85
2023-01-18T01:26:47.210Z,27.00
2023-01-18T01:29:13.898Z,31.52
2023-01-18T01:31:40.614Z,28.65
2023-01-18T01:34:07.215Z,28.60
2023-01-18T01:36:33.709Z,28.67
2023-01-18T01:39:00.123Z,26.20
2023-01-18T01:41:29.496Z,32.05
2023-01-18T01:43:58.191Z,27.48
2023-01-18T01:46:46.326Z,26.65
2023-01-18T01:49:32.141Z,24.73
2023-01-18T01:52:10.643Z,25.17
2023-01-18T01:54:45.307Z,26.90
2023-01-18T01:57:16.771Z,28.90
2023-01-18T01:59:50.813Z,26.23
2023-01-18T02:02:17.379Z,28.98
2023-01-18T02:04:45.097Z,26.42
2023-01-18T02:07:11.669Z,28.10
2023-01-18T02:09:38.545Z,25.20
2023-01-18T02:12:05.546Z,28.98
2023-01-18T02:14:32.156Z,26.33
2023-01-18T02:17:38.716Z,24.25
2023-01-18T02:20:25.390Z,28.73
2023-01-18T02:23:13.238Z,25.48
2023-01-18T02:25:59.057Z,25.05
2023-01-18T02:28:33.443Z,26.90
2023-01-18T02:31:19.515Z,25.35
2023-01-18T02:34:14.093Z,27.67
2023-01-18T02:39:44.135Z,26.45
2023-01-18T02:42:39.438Z,24.45
2023-01-18T02:45:35.802Z,27.73
2023-01-18T02:48:03.145Z,24.08
2023-01-18T02:50:29.810Z,26.55
2023-01-18T02:52:56.599Z,24.38
2023-01-18T02:55:50.439Z,25.25
2023-01-18T02:58:29.712Z,29.77
2023-01-18T03:01:06.177Z,24.27
2023-01-18T03:03:34.492Z,30.13
2023-01-18T03:06:02.937Z,27.98
2023-01-18T03:08:53.985Z,26.58
2023-01-18T03:11:36.092Z,27.08
2023-01-18T03:14:28.289Z,26.20
2023-01-18T03:17:19.729Z,24.30
2023-01-18T03:20:09.068Z,23.88
2023-01-18T03:23:16.851Z,28.17
2023-01-18T03:25:46.076Z,29.70
2023-01-18T03:28:42.265Z,23.55
2023-01-18T03:31:31.273Z,27.48
2023-01-18T03:34:05.044Z,26.95
2023-01-18T03:36:35.845Z,29.50
2023-01-18T03:39:06.196Z,28.40
2023-01-18T03:41:39.098Z,27.48
2023-01-18T03:44:18.332Z,30.08
2023-01-18T03:46:44.869Z,26.77
2023-01-18T03:49:11.780Z,27.95
2023-01-18T03:52:06.783Z,24.88
2023-01-18T03:54:43.237Z,24.25
2023-01-18T03:57:18.593Z,28.48
2023-01-18T03:59:46.632Z,29.02
2023-01-18T04:02:13.734Z,27.30
2023-01-18T04:04:40.307Z,22.80
2023-01-18T04:07:06.726Z,24.67
2023-01-18T04:09:33.106Z,28.35
2023-01-18T04:11:59.550Z,24.77
2023-01-18T04:14:26.075Z,24.85
2023-01-18T04:16:52.623Z,26.13
2023-01-18T04:19:19.352Z,24.35
2023-01-18T04:21:45.877Z,26.48
2023-01-18T04:24:12.418Z,26.42
2023-01-18T04:26:38.981Z,26.60
2023-01-18T04:29:05.577Z,26.15
2023-01-18T04:31:32.018Z,25.38
2023-01-18T04:33:58.521Z,25.33
2023-01-18T04:36:24.907Z,22.25
2023-01-18T04:38:55.368Z,24.00
2023-01-18T04:41:22.405Z,24.35
2023-01-18T04:43:48.820Z,24.13
2023-01-18T04:46:15.650Z,26.38
2023-01-18T04:48:42.552Z,25.92
2023-01-18T04:51:14.840Z,26.55
2023-01-18T04:53:42.416Z,23.38
2023-01-18T04:56:09.768Z,22.58
2023-01-18T04:58:36.932Z,27.35
2023-01-18T05:01:04.680Z,23.67
2023-01-18T05:03:31.606Z,31.15
2023-01-18T05:05:58.063Z,25.60
2023-01-18T05:08:24.490Z,25.88
2023-01-18T05:10:50.979Z,23.92
2023-01-18T05:13:17.413Z,26.23
2023-01-18T05:15:43.819Z,27.10
2023-01-18T05:18:10.274Z,28.60
2023-01-18T05:20:36.845Z,24.08
2023-01-18T05:23:11.049Z,27.52
2023-01-18T05:25:39.048Z,24.05
2023-01-18T05:28:07.638Z,28.70
2023-01-18T05:30:43.844Z,28.23
2023-01-18T05:33:10.588Z,22.63
2023-01-18T05:35:37.174Z,24.73
2023-01-18T05:38:03.621Z,25.67
2023-01-18T05:40:30.042Z,26.23
2023-01-18T05:42:56.917Z,27.73
2023-01-18T05:45:23.670Z,23.48
2023-01-18T05:47:50.205Z,26.95
2023-01-18T05:50:16.601Z,25.35
2023-01-18T05:52:43.063Z,27.00
2023-01-18T05:55:09.481Z,28.88
2023-01-18T05:57:36.050Z,26.42
2023-01-18T06:00:04.919Z,24.35
2023-01-18T06:02:37.932Z,27.02
2023-01-18T06:05:05.020Z,24.92
2023-01-18T06:07:32.963Z,24.38
2023-01-18T06:09:59.582Z,28.45
2023-01-18T06:12:26.002Z,26.77
2023-01-18T06:14:52.769Z,25.88
2023-01-18T06:17:19.289Z,31.25
2023-01-18T06:19:45.709Z,25.02
2023-01-18T06:22:12.138Z,25.20
2023-01-18T06:24:38.581Z,25.13
2023-01-18T06:27:05.286Z,26.13
2023-01-18T06:29:31.989Z,29.95
2023-01-18T06:31:58.405Z,25.65
2023-01-18T06:34:24.844Z,28.60
2023-01-18T06:36:51.398Z,25.80
2023-01-18T06:39:17.969Z,26.58
2023-01-18T06:41:44.371Z,25.40
2023-01-18T06:44:11.164Z,24.63
2023-01-18T06:46:37.570Z,31.88
2023-01-18T06:49:04.013Z,25.42
2023-01-18T06:51:30.445Z,30.35
2023-01-18T06:53:56.897Z,24.60
2023-01-18T06:56:23.338Z,24.60
2023-01-18T06:58:51.062Z,25.15
2023-01-18T07:01:17.741Z,27.70
2023-01-18T07:03:44.302Z,25.05
2023-01-18T07:06:10.987Z,28.40
2023-01-18T07:08:37.490Z,26.17
2023-01-18T07:11:09.893Z,22.33
2023-01-18T07:13:40.117Z,27.25
2023-01-18T07:16:07.972Z,26.17
2023-01-18T07:18:34.926Z,28.15
2023-01-18T07:21:06.947Z,27.77
2023-01-18T07:23:35.466Z,27.15
2023-01-18T07:26:15.505Z,23.90
2023-01-18T07:28:46.127Z,28.45
2023-01-18T07:31:13.211Z,25.38
2023-01-18T07:33:39.721Z,24.48
2023-01-18T07:36:07.266Z,27.27
2023-01-18T07:38:34.072Z,32.55
2023-01-18T07:41:02.329Z,33.55
2023-01-18T07:43:30.254Z,32.53
2023-01-18T07:45:58.115Z,31.45
2023-01-18T07:48:27.988Z,30.23
2023-01-18T07:50:56.347Z,30.20
2023-01-18T07:53:23.636Z,34.95
2023-01-18T07:55:50.486Z,33.75
2023-01-18T07:58:18.216Z,30.85
2023-01-18T08:00:45.069Z,31.95
2023-01-18T08:03:16.559Z,27.50
2023-01-18T08:05:44.162Z,29.48
2023-01-18T08:08:12.146Z,27.42
2023-01-18T08:10:39.157Z,25.63
2023-01-18T08:13:09.046Z,27.77
2023-01-18T08:15:37.168Z,25.95
2023-01-18T08:18:08.143Z,25.80
2023-01-18T08:20:34.908Z,29.67
2023-01-18T08:23:02.375Z,25.83
2023-01-18T08:25:31.532Z,27.23
2023-01-18T08:27:59.732Z,27.65
2023-01-18T08:30:28.211Z,27.75
2023-01-18T08:32:58.280Z,25.17
2023-01-18T08:35:26.180Z,31.33
2023-01-18T08:37:52.629Z,27.45
2023-01-18T08:40:20.125Z,24.92
2023-01-18T08:42:49.219Z,27.95
2023-01-18T08:45:16.377Z,27.60
2023-01-18T08:47:42.915Z,31.17
2023-01-18T08:50:11.221Z,24.67
2023-01-18T08:52:37.643Z,30.13
2023-01-18T08:55:05.215Z,27.55
2023-01-18T08:57:32.448Z,30.10
2023-01-18T08:59:58.894Z,30.73
2023-01-18T09:02:25.754Z,32.00
2023-01-18T09:04:53.399Z,35.33
2023-01-18T09:07:20.551Z,40.47
2023-01-18T09:09:47.014Z,34.90
2023-01-18T09:12:13.503Z,33.35
2023-01-18T09:14:40.905Z,35.75
2023-01-18T09:17:07.422Z,32.40
2023-01-18T09:19:33.882Z,29.77
2023-01-18T09:22:00.313Z,32.55
2023-01-18T09:24:26.777Z,33.50
2023-01-18T09:26:53.897Z,29.58
2023-01-18T09:29:20.306Z,27.38
2023-01-18T09:31:46.832Z,29.13
2023-01-18T09:34:19.240Z,30.67
2023-01-18T09:36:51.503Z,29.00
2023-01-18T09:39:19.182Z,26.33
2023-01-18T09:41:52.518Z,25.30
2023-01-18T09:44:40.749Z,28.92
2023-01-18T09:47:17.637Z,27.13
2023-01-18T09:49:54.897Z,31.55
2023-01-18T09:52:31.731Z,29.75
2023-01-18T09:55:16.616Z,27.60
2023-01-18T09:57:51.045Z,28.77
2023-01-18T10:00:30.705Z,27.60
2023-01-18T10:03:02.388Z,27.33
2023-01-18T10:05:36.872Z,27.80
2023-01-18T10:08:20.829Z,30.98
2023-01-18T10:10:59.942Z,30.17
2023-01-18T10:13:56.320Z,27.88
2023-01-18T10:16:22.912Z,29.48
2023-01-18T10:18:53.399Z,26.25
2023-01-18T10:21:30.722Z,31.17
2023-01-18T10:24:21.642Z,25.38
2023-01-18T10:26:52.351Z,31.17
2023-01-18T10:29:45.121Z,25.88
2023-01-18T10:32:18.187Z,26.60
2023-01-18T10:34:49.291Z,26.00
2023-01-18T10:37:26.883Z,26.27
2023-01-18T10:39:58.958Z,27.05
2023-01-18T10:42:33.995Z,26.90
2023-01-18T10:45:00.430Z,24.13
2023-01-18T10:47:26.815Z,25.48
2023-01-18T10:49:59.177Z,28.23
2023-01-18T10:52:32.195Z,24.17
2023-01-18T10:55:07.300Z,23.93
2023-01-18T10:57:46.154Z,26.25
2023-01-18T11:00:33.579Z,23.92
2023-01-18T11:03:02.661Z,24.20
2023-01-18T11:05:33.053Z,22.90
2023-01-18T11:08:21.450Z,25.23
2023-01-18T11:11:15.264Z,24.73
2023-01-18T11:13:47.390Z,27.77
2023-01-18T11:16:20.734Z,24.10
2023-01-18T11:19:06.096Z,22.42
2023-01-18T11:21:40.939Z,23.83
2023-01-18T11:24:12.807Z,24.17
2023-01-18T11:26:52.227Z,20.95
2023-01-18T11:29:20.772Z,21.58
2023-01-18T11:31:49.483Z,21.25
2023-01-18T11:34:24.756Z,21.15
2023-01-18T11:36:52.934Z,20.55
2023-01-18T11:39:26.891Z,22.85
2023-01-18T11:42:19.905Z,18.83
2023-01-18T11:44:53.866Z,22.38
2023-01-18T11:47:27.513Z,20.52
2023-01-18T11:50:16.942Z,23.10
2023-01-18T11:53:25.062Z,22.95
2023-01-18T11:56:01.952Z,17.93
2023-01-18T11:58:29.710Z,19.05
2023-01-18T12:01:05.514Z,18.80
2023-01-18T12:03:52.046Z,17.90
2023-01-18T12:06:55.797Z,19.00
2023-01-18T12:09:44.133Z,18.58
2023-01-18T12:12:38.047Z,20.73
2023-01-18T12:15:16.458Z,17.67
2023-01-18T12:18:12.874Z,17.33
2023-01-18T12:21:12.275Z,17.20
2023-01-18T12:23:54.487Z,16.55
2023-01-18T12:26:39.740Z,18.30
2023-01-18T12:29:24.165Z,17.80
2023-01-18T12:32:05.959Z,17.23
2023-01-18T12:34:55.215Z,16.30
2023-01-18T12:37:32.260Z,15.95
2023-01-18T12:40:15.921Z,16.38
2023-01-18T12:43:10.243Z,14.32
2023-01-18T12:45:41.517Z,15.88
2023-01-18T12:48:28.221Z,17.95
2023-01-18T12:50:56.596Z,14.13
2023-01-18T12:53:44.393Z,15.73
2023-01-18T12:56:19.917Z,14.77
2023-01-18T12:58:53.996Z,17.20
2023-01-18T13:01:21.851Z,15.50
2023-01-18T13:03:53.169Z,13.90
2023-01-18T13:06:21.069Z,15.75
2023-01-18T13:08:53.349Z,14.70
2023-01-18T13:11:25.090Z,17.08
2023-01-18T13:14:02.087Z,13.27
2023-01-18T13:16:51.910Z,12.75
2023-01-18T13:19:36.826Z,17.67
2023-01-18T13:22:43.321Z,14.45
2023-01-18T13:25:29.403Z,15.13
2023-01-18T13:28:01.907Z,14.75
2023-01-18T13:30:31.770Z,18.42
2023-01-18T13:32:59.240Z,18.20
2023-01-18T13:35:33.481Z,14.43
2023-01-18T13:38:09.487Z,15.43
2023-01-18T13:40:52.267Z,17.15
2023-01-18T13:43:37.064Z,17.52
2023-01-18T13:46:23.544Z,13.68
2023-01-18T13:49:02.458Z,17.73
2023-01-18T13:51:41.069Z,13.82
2023-01-18T13:54:09.954Z,16.80
2023-01-18T13:56:37.808Z,14.00
2023-01-18T13:59:23.546Z,14.35
2023-01-18T14:01:50.751Z,19.63
2023-01-18T14:04:28.197Z,17.55
2023-01-18T14:06:57.275Z,17.30
2023-01-18T14:09:37.047Z,16.83
2023-01-18T14:12:03.862Z,18.83
2023-01-18T14:14:36.161Z,15.88
2023-01-18T14:17:14.973Z,16.95
2023-01-18T14:19:47.192Z,15.85
2023-01-18T14:22:45.370Z,18.42
2023-01-18T14:25:33.394Z,14.60
2023-01-18T14:28:09.703Z,16.25
2023-01-18T14:30:39.132Z,16.48
2023-01-18T14:33:27.971Z,16.63
2023-01-18T14:36:00.900Z,18.48
2023-01-18T14:38:31.238Z,15.50
2023-01-18T14:41:04.826Z,15.70
2023-01-18T14:43:33.709Z,15.38
2023-01-18T14:46:02.452Z,18.85
2023-01-18T14:48:32.239Z,19.20
2023-01-18T14:50:59.628Z,19.70
2023-01-18T14:53:34.497Z,22.55
2023-01-18T14:56:09.097Z,19.48
2023-01-18T14:58:38.419Z,20.92
2023-01-18T15:01:06.223Z,17.52
2023-01-18T15:03:32.731Z,22.88
2023-01-18T15:06:08.202Z,20.40
2023-01-18T15:08:34.809Z,17.30
2023-01-18T15:11:05.085Z,17.10
2023-01-18T15:13:32.787Z,18.25
2023-01-18T15:16:02.212Z,23.52
2023-01-18T15:18:29.316Z,17.58
2023-01-18T15:20:59.236Z,17.42
2023-01-18T15:23:27.004Z,14.93
2023-01-18T15:25:55.289Z,16.00
2023-01-18T15:28:24.190Z,16.75
2023-01-18T15:30:53.359Z,17.65
2023-01-18T15:33:22.151Z,16.90
2023-01-18T15:35:54.273Z,17.65
2023-01-18T15:38:20.765Z,18.02
2023-01-18T15:41:11.024Z,21.30
2023-01-18T15:43:42.357Z,18.52
2023-01-18T15:46:12.882Z,19.95
2023-01-18T15:48:49.835Z,21.65
2023-01-18T15:51:16.421Z,22.52
2023-01-18T15:53:48.955Z,22.75
2023-01-18T15:56:18.614Z,21.48
2023-01-18T15:58:49.819Z,24.55
2023-01-18T16:01:20.639Z,21.00
2023-01-18T16:03:50.063Z,20.85
2023-01-18T16:06:32.051Z,16.98
2023-01-18T16:09:11.810Z,18.65
2023-01-18T16:11:45.708Z,22.92
2023-01-18T16:14:31.244Z,20.92
2023-01-18T16:17:18.094Z,18.77
2023-01-18T16:19:48.528Z,17.52
2023-01-18T16:22:21.881Z,17.92
2023-01-18T16:24:55.602Z,18.30
2023-01-18T16:27:24.831Z,20.35
2023-01-18T16:29:54.788Z,21.80
2023-01-18T16:32:24.293Z,18.98
2023-01-18T16:34:59.536Z,18.92
2023-01-18T16:37:26.514Z,18.30
2023-01-18T16:39:55.215Z,18.30
2023-01-18T16:42:29.581Z,20.58
2023-01-18T16:45:04.277Z,24.08
2023-01-18T16:47:30.762Z,22.48
2023-01-18T16:49:59.153Z,24.20
2023-01-18T16:52:25.799Z,21.00
2023-01-18T16:54:52.388Z,20.73
2023-01-18T16:57:23.375Z,20.15
2023-01-18T16:59:50.546Z,23.02
2023-01-18T17:02:17.041Z,22.70
2023-01-18T17:04:45.302Z,23.77
2023-01-18T17:07:12.474Z,20.85
2023-01-18T17:09:47.963Z,21.27
2023-01-18T17:12:18.295Z,23.92
2023-01-18T17:14:44.872Z,23.83
2023-01-18T17:17:11.311Z,22.17
2023-01-18T17:19:37.935Z,22.83
2023-01-18T17:22:04.892Z,19.85
2023-01-18T17:24:31.335Z,21.20
2023-01-18T17:26:57.872Z,19.30
2023-01-18T17:29:24.301Z,23.50
2023-01-18T17:31:53.034Z,23.35
2023-01-18T17:34:28.177Z,19.80
2023-01-18T17:36:59.436Z,23.27
2023-01-18T17:39:37.123Z,18.27
2023-01-18T17:42:12.408Z,21.10
2023-01-18T17:44:40.855Z,20.92
2023-01-18T17:47:07.685Z,19.83
2023-01-18T17:49:34.219Z,20.52
2023-01-18T17:52:00.732Z,19.63
2023-01-18T17:54:28.469Z,22.40
2023-01-18T17:56:54.960Z,22.02
2023-01-18T17:59:21.498Z,23.98
2023-01-18T18:01:48.124Z,25.20
2023-01-18T18:04:14.611Z,28.05
2023-01-18T18:06:49.767Z,26.58
2023-01-18T18:09:20.715Z,26.70
2023-01-18T18:11:47.290Z,25.38
2023-01-18T18:14:13.941Z,24.75
2023-01-18T18:16:43.539Z,24.45
2023-01-18T18:19:14.604Z,26.70
2023-01-18T18:21:42.314Z,24.35
2023-01-18T18:24:09.108Z,23.17
2023-01-18T18:26:35.543Z,22.63
2023-01-18T18:29:01.963Z,24.48
2023-01-18T18:31:29.352Z,23.60
2023-01-18T18:33:55.990Z,25.60
2023-01-18T18:36:22.601Z,23.38
2023-01-18T18:38:49.035Z,19.80
2023-01-18T18:41:15.564Z,22.13
2023-01-18T18:43:41.981Z,19.50
2023-01-18T18:46:08.539Z,22.15
2023-01-18T18:48:35.313Z,20.45
2023-01-18T18:51:01.752Z,20.85
2023-01-18T18:53:37.421Z,19.30
2023-01-18T18:56:09.113Z,21.30
2023-01-18T18:58:36.608Z,22.38
2023-01-18T19:01:03.729Z,19.52
2023-01-18T19:03:30.536Z,21.27
2023-01-18T19:05:56.957Z,21.10
2023-01-18T19:08:23.778Z,21.48
2023-01-18T19:10:51.149Z,21.77
2023-01-18T19:13:18.652Z,21.42
2023-01-18T19:15:46.861Z,19.92
2023-01-18T19:18:14.024Z,20.75
2023-01-18T19:20:40.989Z,20.67
2023-01-18T19:23:08.621Z,21.52
2023-01-18T19:25:37.760Z,20.88
2023-01-18T19:28:04.365Z,23.80
2023-01-18T19:30:31.604Z,22.60
2023-01-18T19:33:00.035Z,19.85
2023-01-18T19:35:26.980Z,25.77
2023-01-18T19:37:53.589Z,23.45
2023-01-18T19:40:20.501Z,21.55
2023-01-18T19:42:55.581Z,18.77
2023-01-18T19:45:28.227Z,22.02
2023-01-18T19:47:57.217Z,20.30
2023-01-18T19:50:24.454Z,21.98
2023-01-18T19:52:50.917Z,20.55
2023-01-18T19:55:17.592Z,20.48
2023-01-18T19:57:44.615Z,19.45
2023-01-18T20:00:11.650Z,19.25
2023-01-18T20:02:41.315Z,20.40
2023-01-18T20:05:08.496Z,23.35
2023-01-18T20:07:37.706Z,24.42
2023-01-18T20:10:05.261Z,21.38
2023-01-18T20:12:32.330Z,22.00
2023-01-18T20:14:58.751Z,22.05
2023-01-18T20:17:25.961Z,25.88
2023-01-18T20:19:54.061Z,22.17
2023-01-18T20:22:21.531Z,21.48
2023-01-18T20:24:48.011Z,28.48
2023-01-18T20:27:16.869Z,22.55
2023-01-18T20:29:44.369Z,22.27
2023-01-18T20:32:17.201Z,22.95
2023-01-18T20:34:46.684Z,26.05
2023-01-18T20:37:14.574Z,27.35
2023-01-18T20:39:41.166Z,23.65
2023-01-18T20:42:07.694Z,24.50
2023-01-18T20:44:34.317Z,20.63
2023-01-18T20:47:00.791Z,24.33
2023-01-18T20:49:37.402Z,22.42
2023-01-18T20:52:05.749Z,21.75
2023-01-18T20:54:34.653Z,23.75
2023-01-18T20:57:01.234Z,25.45
2023-01-18T20:59:27.690Z,25.50
2023-01-18T21:01:54.236Z,23.73
2023-01-18T21:04:20.995Z,24.27
2023-01-18T21:06:49.705Z,23.30
2023-01-18T21:09:16.484Z,25.33
2023-01-18T21:11:43.110Z,27.63
2023-01-18T21:14:09.641Z,23.40
2023-01-18T21:16:36.074Z,25.80
2023-01-18T21:19:02.517Z,21.55
2023-01-18T21:21:31.321Z,27.17
2023-01-18T21:23:57.878Z,23.55
2023-01-18T21:26:24.326Z,20.55
2023-01-18T21:28:50.815Z,22.20
2023-01-18T21:31:17.506Z,23.27
2023-01-18T21:33:44.027Z,22.92
2023-01-18T21:36:15.855Z,28.60
2023-01-18T21:38:42.323Z,21.05
2023-01-18T21:41:28.026Z,22.30
2023-01-18T21:44:13.355Z,21.70
2023-01-18T21:46:51.641Z,19.10
2023-01-18T21:49:57.640Z,26.27
2023-01-18T21:52:42.089Z,21.10
2023-01-18T21:55:08.904Z,22.83
2023-01-18T21:57:36.480Z,23.92
2023-01-18T22:00:04.845Z,22.52
2023-01-18T22:02:33.674Z,21.73
2023-01-18T22:05:00.237Z,21.35
2023-01-18T22:07:29.946Z,22.10
2023-01-18T22:10:05.088Z,20.38
2023-01-18T22:12:33.253Z,19.20
2023-01-18T22:15:01.826Z,21.35
2023-01-18T22:17:28.329Z,23.70
2023-01-18T22:19:54.740Z,22.90
2023-01-18T22:22:21.142Z,18.40
2023-01-18T22:24:47.586Z,18.85
2023-01-18T22:27:13.974Z,20.00
2023-01-18T22:29:40.386Z,20.02
2023-01-18T22:32:06.876Z,19.77
2023-01-18T22:34:33.306Z,21.63
2023-01-18T22:36:59.733Z,25.55
2023-01-18T22:39:26.159Z,21.67
2023-01-18T22:41:52.664Z,22.20
2023-01-18T22:44:19.088Z,22.23
2023-01-18T22:46:45.501Z,21.77
2023-01-18T22:49:11.932Z,22.15
2023-01-18T22:51:38.830Z,22.20
2023-01-18T22:54:05.824Z,19.23
2023-01-18T22:56:32.308Z,23.05
2023-01-18T22:58:59.951Z,22.45
2023-01-18T23:01:31.825Z,21.67
2023-01-18T23:04:01.294Z,24.70
2023-01-18T23:06:28.816Z,20.15
2023-01-18T23:08:56.320Z,21.08
2023-01-18T23:11:29.080Z,17.80
2023-01-18T23:14:16.400Z,22.00
2023-01-18T23:17:02.222Z,17.48
2023-01-18T23:19:30.658Z,20.73
2023-01-18T23:21:57.912Z,23.35
2023-01-18T23:24:25.166Z,20.00
2023-01-18T23:26:51.944Z,20.73
2023-01-18T23:29:19.897Z,21.05
2023-01-18T23:31:46.708Z,23.08
2023-01-18T23:34:13.489Z,20.05
2023-01-18T23:36:39.914Z,20.48
2023-01-18T23:39:24.692Z,18.40
2023-01-18T23:42:09.528Z,22.00
2023-01-18T23:44:54.394Z,23.05
2023-01-18T23:47:39.093Z,17.30
2023-01-18T23:50:24.443Z,23.13
2023-01-18T23:53:09.186Z,21.85
2023-01-18T23:55:35.609Z,20.92
2023-01-18T23:58:02.425Z,23.25
